Time;durP1;ratioP1;P1;durP2;ratioP2;P2;SDS_P1;SDS_P2;PMS_P1;PMS_P2;Temp;Humidity;BMP_temperature;BMP_pressure;BME280_temperature;BME280_humidity;BME280_pressure;Samples;Min_cycle;Max_cycle;Signal;HPM_P1;HPM_P2
2021/03/09 00:00:11;;;;;;;161.73;36.13;;;;;;;;;;8344081;28;20405;-77
2021/03/09 00:04:16;;;;;;;118.80;34.10;;;;;;;;;;8344639;28;20366;-77
2021/03/09 00:08:20;;;;;;;94.30;31.25;;;;;;;;;;8346360;28;20053;-78
2021/03/09 00:12:27;;;;;;;112.35;30.25;;;;;;;;;;8345889;28;20060;-77
2021/03/09 00:16:31;;;;;;;105.57;29.08;;;;;;;;;;8325339;28;20407;-77
2021/03/09 00:20:36;;;;;;;103.82;28.27;;;;;;;;;;8341279;28;20489;-77
2021/03/09 00:24:41;;;;;;;113.75;30.58;;;;;;;;;;8341571;28;20070;-77
2021/03/09 00:28:45;;;;;;;77.68;26.23;;;;;;;;;;8344905;28;20075;-77
2021/03/09 00:32:50;;;;;;;81.45;25.00;;;;;;;;;;8344129;28;20448;-77
2021/03/09 00:36:54;;;;;;;97.50;27.65;;;;;;;;;;8346821;28;20490;-78
2021/03/09 00:40:58;;;;;;;90.25;28.52;;;;;;;;;;8345833;28;20060;-77
2021/03/09 00:45:04;;;;;;;85.55;27.98;;;;;;;;;;8345177;28;20368;-78
2021/03/09 00:49:27;;;;;;;79.88;26.58;;;;;;;;;;8342170;28;20485;-77
2021/03/09 00:53:32;;;;;;;108.40;36.35;;;;;;;;;;8344342;28;20470;-77
2021/03/09 00:57:37;;;;;;;88.43;26.13;;;;;;;;;;8344921;28;20382;-78
2021/03/09 01:01:41;;;;;;;92.40;26.75;;;;;;;;;;8344443;28;20052;-77
2021/03/09 01:05:46;;;;;;;75.25;26.38;;;;;;;;;;8375094;28;20165;-77
2021/03/09 01:09:51;;;;;;;83.82;26.77;;;;;;;;;;8381326;28;20373;-76
2021/03/09 01:13:54;;;;;;;88.93;25.83;;;;;;;;;;8382480;28;20074;-78
2021/03/09 01:17:58;;;;;;;87.10;24.98;;;;;;;;;;8380961;28;20542;-77
2021/03/09 01:22:03;;;;;;;82.90;25.85;;;;;;;;;;8377067;28;20066;-77
2021/03/09 01:26:07;;;;;;;81.88;27.70;;;;;;;;;;8381649;28;20494;-78
2021/03/09 01:30:13;;;;;;;90.10;27.75;;;;;;;;;;8388937;28;20463;-77
2021/03/09 01:34:18;;;;;;;79.43;26.30;;;;;;;;;;8390745;28;20044;-77
2021/03/09 01:38:22;;;;;;;76.13;24.50;;;;;;;;;;8391408;28;20143;-76
2021/03/09 01:42:27;;;;;;;76.70;24.67;;;;;;;;;;8394863;28;20569;-76
2021/03/09 01:46:33;;;;;;;89.75;29.73;;;;;;;;;;8399622;28;20119;-77
2021/03/09 01:50:43;;;;;;;100.38;31.05;;;;;;;;;;8406758;28;20134;-77
2021/03/09 01:54:47;;;;;;;79.70;28.27;;;;;;;;;;8388124;28;20104;-77
2021/03/09 01:58:54;;;;;;;86.97;28.10;;;;;;;;;;8413431;28;20163;-78
2021/03/09 02:02:59;;;;;;;91.72;29.10;;;;;;;;;;8415679;28;20135;-77
2021/03/09 02:07:04;;;;;;;93.40;28.73;;;;;;;;;;8419417;28;20493;-76
2021/03/09 02:11:28;;;;;;;91.15;28.23;;;;;;;;;;8425923;28;20083;-77
2021/03/09 02:16:01;;;;;;;98.95;31.52;;;;;;;;;;8431517;28;20459;-77
2021/03/09 02:20:57;;;;;;;96.70;30.13;;;;;;;;;;8426438;28;20540;-78
2021/03/09 02:25:44;;;;;;;96.53;29.33;;;;;;;;;;8426861;28;20075;-77
2021/03/09 02:30:06;;;;;;;108.03;33.92;;;;;;;;;;8435632;28;20076;-78
2021/03/09 02:34:17;;;;;;;92.18;30.85;;;;;;;;;;8446872;28;20485;-78
2021/03/09 02:38:25;;;;;;;100.45;29.10;;;;;;;;;;8454698;28;20051;-78
2021/03/09 02:42:35;;;;;;;84.68;28.42;;;;;;;;;;8455206;28;20047;-78
2021/03/09 02:46:44;;;;;;;96.03;30.15;;;;;;;;;;8456533;28;20063;-77
2021/03/09 02:51:02;;;;;;;82.00;28.33;;;;;;;;;;8452448;28;20040;-78
2021/03/09 02:55:11;;;;;;;94.50;28.48;;;;;;;;;;8454757;28;20052;-77
2021/03/09 02:59:17;;;;;;;106.07;31.30;;;;;;;;;;8451760;28;20330;-78
2021/03/09 03:03:23;;;;;;;96.13;30.02;;;;;;;;;;8451523;28;20050;-78
2021/03/09 03:07:30;;;;;;;95.10;28.85;;;;;;;;;;8451677;28;20043;-79
2021/03/09 03:11:35;;;;;;;97.90;27.02;;;;;;;;;;8450109;28;20063;-77
2021/03/09 03:15:41;;;;;;;82.85;28.30;;;;;;;;;;8449744;28;20040;-78
2021/03/09 03:19:47;;;;;;;96.95;29.17;;;;;;;;;;8450207;28;20048;-77
2021/03/09 03:23:52;;;;;;;103.05;33.45;;;;;;;;;;8447085;28;20417;-78
2021/03/09 03:27:58;;;;;;;110.70;34.50;;;;;;;;;;8446342;28;20055;-78
2021/03/09 03:32:02;;;;;;;99.65;35.25;;;;;;;;;;8448935;28;20406;-79
2021/03/09 03:36:08;;;;;;;105.38;34.50;;;;;;;;;;8446913;28;20044;-76
2021/03/09 03:40:17;;;;;;;120.78;36.58;;;;;;;;;;8446258;28;20506;-78
2021/03/09 03:44:21;;;;;;;112.47;33.95;;;;;;;;;;8448614;28;20059;-79
2021/03/09 03:48:27;;;;;;;104.32;32.20;;;;;;;;;;8446030;28;20051;-79
2021/03/09 03:53:14;;;;;;;109.88;34.67;;;;;;;;;;8442270;28;20441;-78
2021/03/09 03:57:27;;;;;;;124.05;32.50;;;;;;;;;;8440610;28;20083;-78
2021/03/09 04:01:34;;;;;;;107.65;36.33;;;;;;;;;;8438799;28;20075;-78
2021/03/09 04:05:45;;;;;;;111.55;34.05;;;;;;;;;;8440569;28;20406;-78
2021/03/09 04:09:53;;;;;;;108.22;32.85;;;;;;;;;;8436584;28;20526;-79
2021/03/09 04:13:58;;;;;;;96.63;31.85;;;;;;;;;;8436641;28;20457;-78
2021/03/09 04:18:09;;;;;;;104.85;33.53;;;;;;;;;;8430599;28;20087;-77
2021/03/09 04:22:16;;;;;;;106.90;31.45;;;;;;;;;;8429676;28;20078;-78
2021/03/09 04:26:22;;;;;;;104.88;33.08;;;;;;;;;;8427256;28;20090;-78
2021/03/09 04:30:28;;;;;;;109.40;33.75;;;;;;;;;;8429032;28;20091;-78
2021/03/09 04:34:32;;;;;;;95.82;31.05;;;;;;;;;;8428852;28;20093;-78
2021/03/09 04:38:37;;;;;;;112.07;31.65;;;;;;;;;;8427926;28;20075;-77
2021/03/09 04:42:42;;;;;;;117.03;34.25;;;;;;;;;;8423734;28;20435;-77
2021/03/09 04:46:46;;;;;;;115.95;33.65;;;;;;;;;;8425296;28;20093;-78
2021/03/09 04:51:00;;;;;;;108.50;33.67;;;;;;;;;;8422128;28;20159;-78
2021/03/09 04:55:06;;;;;;;93.78;32.22;;;;;;;;;;8412511;28;20139;-77
2021/03/09 04:59:10;;;;;;;103.65;29.42;;;;;;;;;;8410509;28;20140;-77
2021/03/09 05:03:15;;;;;;;84.95;26.83;;;;;;;;;;8419485;28;20111;-79
2021/03/09 05:07:19;;;;;;;76.47;26.52;;;;;;;;;;8423083;28;20557;-79
2021/03/09 05:11:23;;;;;;;63.63;23.63;;;;;;;;;;8421231;28;20090;-78
2021/03/09 05:15:28;;;;;;;71.93;21.80;;;;;;;;;;8428930;28;20508;-78
2021/03/09 05:19:33;;;;;;;68.45;22.48;;;;;;;;;;8423423;28;20462;-78
2021/03/09 05:23:38;;;;;;;66.13;24.23;;;;;;;;;;8419878;28;20135;-78
2021/03/09 05:27:44;;;;;;;82.88;30.77;;;;;;;;;;8425169;28;20112;-78
2021/03/09 05:31:49;;;;;;;69.68;26.60;;;;;;;;;;8426168;28;20504;-78
2021/03/09 05:35:53;;;;;;;74.40;29.85;;;;;;;;;;8437972;28;20094;-78
2021/03/09 05:39:57;;;;;;;89.07;30.65;;;;;;;;;;8428429;28;20445;-77
2021/03/09 05:44:03;;;;;;;80.97;30.77;;;;;;;;;;8438104;28;20071;-79
2021/03/09 05:48:08;;;;;;;109.15;35.17;;;;;;;;;;8440564;28;20048;-79
2021/03/09 05:52:13;;;;;;;61.17;21.77;;;;;;;;;;8419348;28;20071;-79
2021/03/09 05:56:18;;;;;;;59.95;21.50;;;;;;;;;;8431512;28;20071;-79
2021/03/09 06:00:24;;;;;;;63.40;22.58;;;;;;;;;;8423311;28;20500;-78
2021/03/09 06:04:33;;;;;;;130.80;41.42;;;;;;;;;;8418261;28;20132;-80
2021/03/09 06:08:38;;;;;;;121.57;38.10;;;;;;;;;;8407549;28;20458;-78
2021/03/09 06:12:43;;;;;;;99.10;33.10;;;;;;;;;;8402884;28;20135;-78
2021/03/09 06:16:48;;;;;;;127.78;38.70;;;;;;;;;;8396703;28;20461;-79
2021/03/09 06:21:12;;;;;;;108.03;36.97;;;;;;;;;;8406389;28;20152;-79
2021/03/09 06:25:30;;;;;;;69.90;24.02;;;;;;;;;;8400610;28;20147;-78
2021/03/09 06:29:34;;;;;;;76.67;27.50;;;;;;;;;;8394249;28;20064;-80
2021/03/09 06:33:40;;;;;;;92.45;30.98;;;;;;;;;;8421400;28;20558;-78
2021/03/09 06:37:45;;;;;;;88.95;32.47;;;;;;;;;;8401032;28;20418;-78
2021/03/09 06:41:49;;;;;;;80.05;27.92;;;;;;;;;;8369066;28;20454;-78
2021/03/09 06:46:16;;;;;;;122.88;39.38;;;;;;;;;;8357131;28;20455;-78
2021/03/09 06:50:34;;;;;;;138.43;44.88;;;;;;;;;;8375124;28;20500;-78
2021/03/09 06:54:44;;;;;;;121.05;40.55;;;;;;;;;;8369393;28;20074;-80
2021/03/09 06:58:49;;;;;;;283.90;105.50;;;;;;;;;;8370514;28;20447;-79
2021/03/09 07:02:53;;;;;;;275.85;107.20;;;;;;;;;;8388975;28;20123;-79
2021/03/09 07:06:59;;;;;;;226.35;97.25;;;;;;;;;;8400087;28;20131;-80
2021/03/09 07:11:04;;;;;;;227.52;90.97;;;;;;;;;;8413367;28;20120;-80
2021/03/09 07:15:16;;;;;;;199.20;84.53;;;;;;;;;;8394206;28;20056;-79
2021/03/09 07:19:26;;;;;;;210.73;86.57;;;;;;;;;;8392985;28;20525;-78
2021/03/09 07:23:32;;;;;;;211.00;90.75;;;;;;;;;;8391063;28;20135;-79
2021/03/09 07:28:01;;;;;;;209.50;85.18;;;;;;;;;;8387426;28;20129;-78
2021/03/09 07:32:08;;;;;;;;;;;;;;;;;;8373106;28;20488;-78
2021/03/09 07:36:13;;;;;;;115.25;47.35;;;;;;;;;;8361484;28;20330;-77
2021/03/09 07:40:24;;;;;;;107.22;44.38;;;;;;;;;;8338500;28;20047;-78
2021/03/09 07:44:30;;;;;;;137.63;55.92;;;;;;;;;;8344563;28;20394;-78
2021/03/09 07:48:37;;;;;;;125.00;52.70;;;;;;;;;;8355646;28;20488;-78
2021/03/09 07:53:00;;;;;;;98.97;41.75;;;;;;;;;;8357961;28;20055;-79
2021/03/09 07:57:20;;;;;;;88.55;40.10;;;;;;;;;;8354066;28;20052;-78
2021/03/09 08:01:45;;;;;;;84.10;37.83;;;;;;;;;;8335667;28;20327;-78
2021/03/09 08:06:03;;;;;;;78.50;32.63;;;;;;;;;;8338936;28;20386;-78
2021/03/09 08:10:29;;;;;;;51.75;23.50;;;;;;;;;;8346728;28;20482;-80
2021/03/09 08:14:34;;;;;;;24.77;10.30;;;;;;;;;;8350091;28;20065;-78
2021/03/09 08:18:38;;;;;;;9.07;3.10;;;;;;;;;;8332614;28;20074;-78
2021/03/09 08:22:42;;;;;;;12.77;4.90;;;;;;;;;;8358148;28;20366;-77
2021/03/09 08:26:48;;;;;;;18.42;6.88;;;;;;;;;;8354688;28;20478;-78
2021/03/09 08:31:14;;;;;;;;;;;;;;;;;;8342440;28;20478;-78
2021/03/09 08:35:21;;;;;;;81.15;32.53;;;;;;;;;;8346254;28;20284;-77
2021/03/09 08:39:26;;;;;;;10.27;4.97;;;;;;;;;;8346241;28;20393;-77
2021/03/09 08:43:30;;;;;;;8.77;3.40;;;;;;;;;;8370291;28;20496;-77
2021/03/09 08:47:52;;;;;;;10.43;3.28;;;;;;;;;;8368036;28;20385;-78
2021/03/09 08:51:56;;;;;;;7.45;3.33;;;;;;;;;;8335780;28;20051;-77
2021/03/09 08:56:06;;;;;;;3.35;1.65;;;;;;;;;;8357765;28;20381;-77
2021/03/09 09:00:12;;;;;;;2.42;1.25;;;;;;;;;;8375636;28;20059;-76
2021/03/09 09:04:18;;;;;;;51.15;15.25;;;;;;;;;;8337035;28;20052;-77
2021/03/09 09:08:22;;;;;;;3.35;1.98;;;;;;;;;;8351394;28;20040;-77
2021/03/09 09:12:35;;;;;;;15.93;5.30;;;;;;;;;;8357884;28;20622;-79
2021/03/09 09:16:40;;;;;;;105.43;26.88;;;;;;;;;;8369531;28;20055;-78
2021/03/09 09:20:47;;;;;;;33.95;11.20;;;;;;;;;;8372731;28;20052;-77
2021/03/09 09:25:07;;;;;;;5.50;2.72;;;;;;;;;;8371116;28;20453;-78
2021/03/09 09:29:12;;;;;;;6.22;2.55;;;;;;;;;;8377395;28;20070;-76
2021/03/09 09:33:17;;;;;;;17.83;6.35;;;;;;;;;;8384584;28;20150;-75
2021/03/09 09:37:22;;;;;;;13.70;4.07;;;;;;;;;;8390018;28;20477;-75
2021/03/09 09:41:26;;;;;;;6.05;3.33;;;;;;;;;;8405222;28;20052;-76
2021/03/09 09:45:33;;;;;;;5.88;2.67;;;;;;;;;;8393133;28;20079;-76
2021/03/09 09:49:41;;;;;;;6.32;2.20;;;;;;;;;;8387498;28;20048;-76
2021/03/09 09:53:49;;;;;;;5.90;2.75;;;;;;;;;;8381775;28;20438;-76
2021/03/09 09:57:59;;;;;;;11.10;5.22;;;;;;;;;;8399091;28;20522;-75
2021/03/09 10:02:23;;;;;;;7.35;2.50;;;;;;;;;;8390162;28;20048;-75
2021/03/09 10:06:38;;;;;;;24.88;13.10;;;;;;;;;;8376548;28;20132;-76
2021/03/09 10:10:58;;;;;;;9.68;4.20;;;;;;;;;;8354657;28;20058;-76
2021/03/09 10:15:06;;;;;;;6.13;2.60;;;;;;;;;;8352730;28;20047;-76
2021/03/09 10:19:15;;;;;;;;;;;;;;;;;;8349104;28;20048;-76
2021/03/09 10:23:19;;;;;;;;;;;;;;;;;;8331538;28;20436;-76
2021/03/09 10:27:24;;;;;;;9.80;4.82;;;;;;;;;;8331374;28;20360;-76
2021/03/09 10:31:47;;;;;;;15.13;5.60;;;;;;;;;;8332168;28;20381;-78
2021/03/09 10:36:10;;;;;;;10.13;4.85;;;;;;;;;;8335755;28;20078;-75
2021/03/09 10:40:15;;;;;;;19.42;7.43;;;;;;;;;;8332689;28;20416;-75
2021/03/09 10:44:33;;;;;;;24.88;8.50;;;;;;;;;;8377317;28;20047;-76
2021/03/09 10:48:40;;;;;;;17.40;6.32;;;;;;;;;;8387660;28;20465;-75
2021/03/09 10:52:44;;;;;;;9.15;3.80;;;;;;;;;;8392320;28;20442;-76
2021/03/09 10:56:49;;;;;;;10.20;4.10;;;;;;;;;;8380581;28;20044;-77
2021/03/09 11:00:53;;;;;;;11.68;6.22;;;;;;;;;;8384490;28;20358;-76
2021/03/09 11:04:57;;;;;;;9.82;4.40;;;;;;;;;;8383614;28;20393;-77
2021/03/09 11:09:02;;;;;;;8.60;4.38;;;;;;;;;;8388560;28;20534;-76
2021/03/09 11:13:06;;;;;;;6.68;3.38;;;;;;;;;;8389494;28;20052;-77
2021/03/09 11:17:11;;;;;;;8.27;3.90;;;;;;;;;;8383047;28;20556;-76
2021/03/09 11:21:15;;;;;;;9.65;4.85;;;;;;;;;;8360734;28;20058;-76
2021/03/09 11:25:20;;;;;;;23.00;4.05;;;;;;;;;;8360760;28;20500;-77
2021/03/09 11:29:24;;;;;;;7.13;3.33;;;;;;;;;;8344202;28;20052;-77
2021/03/09 11:33:29;;;;;;;9.70;3.35;;;;;;;;;;8361640;28;20044;-75
2021/03/09 11:37:34;;;;;;;6.82;3.30;;;;;;;;;;8340353;28;20352;-74
2021/03/09 11:41:38;;;;;;;6.72;2.95;;;;;;;;;;8342864;28;20408;-76
2021/03/09 11:45:43;;;;;;;6.68;3.20;;;;;;;;;;8326549;28;20481;-75
2021/03/09 11:49:47;;;;;;;7.50;3.25;;;;;;;;;;8329764;28;20458;-76
2021/03/09 11:53:51;;;;;;;5.50;3.28;;;;;;;;;;8328703;28;20484;-72
2021/03/09 11:57:56;;;;;;;8.00;3.20;;;;;;;;;;8326842;28;20354;-74
2021/03/09 12:02:00;;;;;;;8.55;5.45;;;;;;;;;;8328583;28;20347;-76
2021/03/09 12:06:05;;;;;;;5.90;2.83;;;;;;;;;;8325487;28;20052;-79
2021/03/09 12:10:11;;;;;;;7.22;2.92;;;;;;;;;;8326563;28;20366;-75
2021/03/09 12:14:14;;;;;;;6.57;3.10;;;;;;;;;;8326801;28;20117;-76
2021/03/09 12:18:19;;;;;;;8.75;4.43;;;;;;;;;;8328419;28;20390;-75
2021/03/09 12:22:23;;;;;;;5.82;3.53;;;;;;;;;;8324088;28;20413;-76
2021/03/09 12:26:28;;;;;;;10.95;3.35;;;;;;;;;;8324501;28;20378;-76
2021/03/09 12:30:32;;;;;;;11.93;3.85;;;;;;;;;;8323282;28;20478;-77
2021/03/09 12:34:37;;;;;;;17.40;5.03;;;;;;;;;;8323867;28;20356;-76
2021/03/09 12:38:42;;;;;;;7.88;3.60;;;;;;;;;;8326981;28;20472;-76
2021/03/09 12:42:47;;;;;;;9.63;4.53;;;;;;;;;;8327403;28;20064;-76
2021/03/09 12:46:52;;;;;;;7.38;3.58;;;;;;;;;;8329678;28;20060;-77
2021/03/09 12:50:57;;;;;;;12.38;4.55;;;;;;;;;;8325903;28;20524;-77
2021/03/09 12:55:03;;;;;;;12.90;5.50;;;;;;;;;;8324052;28;20052;-76
2021/03/09 12:59:08;;;;;;;11.30;5.50;;;;;;;;;;8326828;28;20344;-75
2021/03/09 13:03:12;;;;;;;10.93;5.15;;;;;;;;;;8327219;28;20386;-76
2021/03/09 13:07:17;;;;;;;11.50;3.50;;;;;;;;;;8325527;28;20363;-76
2021/03/09 13:11:23;;;;;;;15.65;6.68;;;;;;;;;;8322734;28;20386;-76
2021/03/09 13:15:32;;;;;;;33.47;14.52;;;;;;;;;;8325482;28;20465;-76
2021/03/09 13:19:38;;;;;;;15.02;5.72;;;;;;;;;;8326824;28;20465;-76
2021/03/09 13:23:42;;;;;;;18.00;7.00;;;;;;;;;;8331188;28;20370;-76
2021/03/09 13:27:49;;;;;;;9.45;4.72;;;;;;;;;;8337335;28;20385;-77
2021/03/09 13:31:53;;;;;;;14.15;7.03;;;;;;;;;;8329151;28;20048;-76
2021/03/09 13:35:58;;;;;;;12.82;7.05;;;;;;;;;;8332677;28;20382;-77
2021/03/09 13:40:06;;;;;;;13.02;5.60;;;;;;;;;;8337439;28;20359;-76
2021/03/09 13:44:10;;;;;;;15.43;6.35;;;;;;;;;;8334352;28;20362;-75
2021/03/09 13:48:18;;;;;;;37.30;12.38;;;;;;;;;;8334959;28;20489;-74
2021/03/09 13:52:35;;;;;;;14.18;6.50;;;;;;;;;;8339243;28;20450;-77
2021/03/09 13:56:39;;;;;;;12.63;4.72;;;;;;;;;;8335628;28;20062;-76
2021/03/09 14:00:44;;;;;;;12.43;5.95;;;;;;;;;;8331440;28;20359;-77
2021/03/09 14:04:48;;;;;;;10.45;4.93;;;;;;;;;;8334586;28;20362;-76
2021/03/09 14:08:54;;;;;;;13.00;5.00;;;;;;;;;;8332976;28;20466;-77
2021/03/09 14:12:59;;;;;;;18.92;7.35;;;;;;;;;;8331569;28;20413;-76
2021/03/09 14:17:04;;;;;;;13.23;6.40;;;;;;;;;;8329493;28;20463;-76
2021/03/09 14:21:08;;;;;;;16.02;7.15;;;;;;;;;;8333614;28;20374;-76
2021/03/09 14:25:15;;;;;;;39.22;17.65;;;;;;;;;;8330968;28;20459;-77
2021/03/09 14:29:21;;;;;;;12.52;5.60;;;;;;;;;;8328142;28;20451;-75
2021/03/09 14:33:26;;;;;;;16.60;8.18;;;;;;;;;;8334556;28;20374;-76
2021/03/09 14:37:31;;;;;;;13.32;5.32;;;;;;;;;;8332849;28;20465;-76
2021/03/09 14:41:35;;;;;;;13.32;6.15;;;;;;;;;;8334932;28;20400;-76
2021/03/09 14:45:40;;;;;;;14.80;6.20;;;;;;;;;;8330406;28;20087;-76
2021/03/09 14:49:45;;;;;;;11.15;5.95;;;;;;;;;;8328140;28;20508;-76
2021/03/09 14:53:50;;;;;;;13.48;5.88;;;;;;;;;;8330586;28;20514;-75
2021/03/09 14:57:54;;;;;;;12.95;6.15;;;;;;;;;;8330877;28;20371;-76
2021/03/09 15:01:58;;;;;;;14.57;6.43;;;;;;;;;;8329949;28;20382;-77
2021/03/09 15:06:03;;;;;;;13.45;6.40;;;;;;;;;;8330835;28;20450;-77
2021/03/09 15:10:10;;;;;;;11.70;6.40;;;;;;;;;;8342641;28;20385;-77
2021/03/09 15:14:14;;;;;;;21.52;7.18;;;;;;;;;;8349296;28;20044;-77
2021/03/09 15:18:19;;;;;;;13.23;5.63;;;;;;;;;;8329740;28;20477;-75
2021/03/09 15:22:25;;;;;;;13.18;5.65;;;;;;;;;;8333675;28;20417;-74
2021/03/09 15:26:29;;;;;;;16.55;6.47;;;;;;;;;;8331519;28;20384;-75
2021/03/09 15:30:36;;;;;;;11.15;6.07;;;;;;;;;;8332698;28;20466;-77
2021/03/09 15:34:40;;;;;;;9.88;5.57;;;;;;;;;;8339246;28;20347;-74
2021/03/09 15:38:45;;;;;;;15.88;7.40;;;;;;;;;;8336846;28;20462;-76
2021/03/09 15:42:50;;;;;;;16.50;7.47;;;;;;;;;;8334123;28;20056;-75
2021/03/09 15:46:56;;;;;;;15.73;7.57;;;;;;;;;;8336572;28;20356;-73
2021/03/09 15:51:01;;;;;;;17.33;7.25;;;;;;;;;;8335758;28;20481;-76
2021/03/09 15:55:08;;;;;;;18.75;6.35;;;;;;;;;;8332349;28;20328;-75
2021/03/09 15:59:12;;;;;;;19.58;6.47;;;;;;;;;;8343662;28;20394;-75
2021/03/09 16:03:19;;;;;;;12.48;6.22;;;;;;;;;;8341194;28;20387;-76
2021/03/09 16:07:26;;;;;;;13.50;6.32;;;;;;;;;;8338368;28;20455;-73
2021/03/09 16:11:31;;;;;;;13.55;6.72;;;;;;;;;;8331016;28;20424;-76
2021/03/09 16:15:36;;;;;;;17.15;7.25;;;;;;;;;;8333483;28;20469;-77
2021/03/09 16:19:41;;;;;;;18.02;7.10;;;;;;;;;;8340719;28;20039;-77
2021/03/09 16:23:46;;;;;;;24.75;10.45;;;;;;;;;;8337559;28;20064;-76
2021/03/09 16:27:51;;;;;;;26.55;12.05;;;;;;;;;;8347596;28;20485;-77
2021/03/09 16:31:57;;;;;;;66.28;25.10;;;;;;;;;;8336958;28;20075;-76
2021/03/09 16:36:02;;;;;;;77.40;33.47;;;;;;;;;;8337516;28;20476;-78
2021/03/09 16:40:08;;;;;;;76.05;32.03;;;;;;;;;;8337315;28;20415;-78
2021/03/09 16:44:13;;;;;;;43.75;17.40;;;;;;;;;;8324606;28;20463;-76
2021/03/09 16:48:17;;;;;;;34.83;14.45;;;;;;;;;;8324773;28;20477;-76
2021/03/09 16:52:22;;;;;;;26.95;11.43;;;;;;;;;;8324038;28;20048;-76
2021/03/09 16:56:26;;;;;;;39.75;15.82;;;;;;;;;;8328004;28;20462;-76
2021/03/09 17:00:31;;;;;;;32.22;14.65;;;;;;;;;;8335038;28;20051;-76
2021/03/09 17:04:33;;;;;;;111.50;47.63;;;;;;;;;;8326615;28;20099;-77
2021/03/09 17:08:38;;;;;;;262.33;105.63;;;;;;;;;;8329043;28;20465;-77
2021/03/09 17:12:42;;;;;;;227.48;83.45;;;;;;;;;;8330041;28;20470;-76
2021/03/09 17:16:47;;;;;;;91.15;38.90;;;;;;;;;;8331417;28;20343;-76
2021/03/09 17:20:52;;;;;;;539.42;233.70;;;;;;;;;;8335692;28;20070;-77
2021/03/09 17:24:56;;;;;;;500.33;176.60;;;;;;;;;;8344999;28;20048;-77
2021/03/09 17:29:09;;;;;;;413.58;123.30;;;;;;;;;;8351133;28;20048;-77
2021/03/09 17:33:13;;;;;;;204.10;58.45;;;;;;;;;;8348200;28;20391;-77
2021/03/09 17:37:18;;;;;;;438.48;130.07;;;;;;;;;;8342626;28;20454;-76
2021/03/09 17:41:23;;;;;;;668.60;228.43;;;;;;;;;;8339564;28;20366;-77
2021/03/09 17:45:27;;;;;;;260.67;76.40;;;;;;;;;;8338753;28;20352;-77
2021/03/09 17:49:32;;;;;;;302.85;99.15;;;;;;;;;;8336262;28;20056;-77
2021/03/09 17:53:36;;;;;;;339.50;104.78;;;;;;;;;;8331039;28;20048;-76
2021/03/09 17:57:48;;;;;;;163.15;48.53;;;;;;;;;;8330621;28;20048;-77
2021/03/09 18:02:08;;;;;;;269.08;82.07;;;;;;;;;;8327324;28;20347;-76
2021/03/09 18:06:14;;;;;;;125.55;41.05;;;;;;;;;;8329858;28;20063;-76
2021/03/09 18:10:18;;;;;;;99.60;28.13;;;;;;;;;;8329266;28;20048;-77
2021/03/09 18:14:25;;;;;;;108.45;34.05;;;;;;;;;;8330383;28;20370;-77
2021/03/09 18:18:30;;;;;;;160.02;47.42;;;;;;;;;;8328630;28;20355;-77
2021/03/09 18:22:37;;;;;;;77.60;29.13;;;;;;;;;;8330178;28;20389;-77
2021/03/09 18:26:42;;;;;;;184.63;52.58;;;;;;;;;;8328780;28;20469;-76
2021/03/09 18:30:47;;;;;;;121.43;37.53;;;;;;;;;;8329724;28;20059;-76
2021/03/09 18:34:51;;;;;;;52.33;19.50;;;;;;;;;;8328204;28;20059;-77
2021/03/09 18:38:56;;;;;;;56.78;20.75;;;;;;;;;;8326820;28;20458;-77
2021/03/09 18:43:00;;;;;;;65.18;24.63;;;;;;;;;;8327863;28;20048;-77
2021/03/09 18:47:06;;;;;;;60.30;22.58;;;;;;;;;;8327665;28;20457;-77
2021/03/09 18:51:10;;;;;;;49.95;20.15;;;;;;;;;;8327153;28;20352;-76
2021/03/09 18:55:16;;;;;;;45.97;17.75;;;;;;;;;;8343268;28;20382;-77
2021/03/09 18:59:21;;;;;;;49.58;18.05;;;;;;;;;;8325146;28;20382;-76
2021/03/09 19:03:25;;;;;;;43.15;16.02;;;;;;;;;;8328136;28;20355;-77
2021/03/09 19:07:30;;;;;;;55.63;20.63;;;;;;;;;;8326048;28;20459;-78
2021/03/09 19:11:35;;;;;;;88.60;28.33;;;;;;;;;;8324979;28;20413;-77
2021/03/09 19:15:39;;;;;;;48.00;19.38;;;;;;;;;;8327507;28;20052;-77
2021/03/09 19:19:44;;;;;;;50.10;19.10;;;;;;;;;;8327162;28;20478;-77
2021/03/09 19:23:49;;;;;;;50.45;19.80;;;;;;;;;;8327130;28;20354;-77
2021/03/09 19:27:53;;;;;;;46.75;19.00;;;;;;;;;;8326368;28;20417;-77
2021/03/09 19:31:57;;;;;;;49.55;18.73;;;;;;;;;;8341524;28;20048;-77
2021/03/09 19:36:02;;;;;;;54.67;19.50;;;;;;;;;;8325953;28;20371;-76
2021/03/09 19:40:07;;;;;;;50.72;19.42;;;;;;;;;;8341225;28;20064;-77
2021/03/09 19:44:12;;;;;;;49.38;20.08;;;;;;;;;;8326163;28;20450;-77
2021/03/09 19:48:18;;;;;;;44.05;19.60;;;;;;;;;;8326301;28;20365;-77
2021/03/09 19:52:24;;;;;;;45.42;17.75;;;;;;;;;;8321972;28;20081;-77
2021/03/09 19:56:29;;;;;;;46.03;17.65;;;;;;;;;;8324543;28;20383;-76
2021/03/09 20:00:35;;;;;;;49.97;19.45;;;;;;;;;;8341020;28;20040;-76
2021/03/09 20:04:39;;;;;;;46.85;18.20;;;;;;;;;;8326112;28;20048;-77
2021/03/09 20:08:45;;;;;;;41.42;16.23;;;;;;;;;;8329252;28;20588;-77
2021/03/09 20:12:49;;;;;;;60.40;18.33;;;;;;;;;;8328400;28;20447;-77
2021/03/09 20:16:53;;;;;;;44.83;17.30;;;;;;;;;;8328338;28;20488;-76
2021/03/09 20:20:58;;;;;;;51.70;19.05;;;;;;;;;;8326949;28;20439;-76
2021/03/09 20:25:05;;;;;;;98.03;28.70;;;;;;;;;;8324611;28;20355;-76
2021/03/09 20:29:10;;;;;;;434.90;126.75;;;;;;;;;;8327655;28;20370;-77
2021/03/09 20:33:14;;;;;;;195.90;64.55;;;;;;;;;;8331901;28;20381;-77
2021/03/09 20:37:21;;;;;;;100.72;33.85;;;;;;;;;;8331789;28;20071;-77
2021/03/09 20:41:28;;;;;;;107.03;40.58;;;;;;;;;;8330817;28;20457;-77
2021/03/09 20:45:32;;;;;;;103.40;32.65;;;;;;;;;;8329549;28;20380;-76
2021/03/09 20:49:36;;;;;;;109.55;36.10;;;;;;;;;;8326252;28;20066;-76
2021/03/09 20:53:44;;;;;;;129.30;38.47;;;;;;;;;;8327221;28;20137;-76
2021/03/09 20:57:49;;;;;;;159.30;45.60;;;;;;;;;;8325243;28;20052;-77
2021/03/09 21:01:54;;;;;;;109.18;38.00;;;;;;;;;;8325897;28;20224;-76
2021/03/09 21:06:09;;;;;;;100.07;33.03;;;;;;;;;;8325541;28;20358;-77
2021/03/09 21:10:17;;;;;;;82.55;28.17;;;;;;;;;;8326792;28;20465;-76
2021/03/09 21:14:21;;;;;;;74.30;25.73;;;;;;;;;;8325196;28;20492;-77
2021/03/09 21:18:27;;;;;;;61.00;22.55;;;;;;;;;;8324688;28;20459;-76
2021/03/09 21:22:31;;;;;;;75.80;24.83;;;;;;;;;;8325990;28;20409;-76
2021/03/09 21:26:36;;;;;;;85.70;26.25;;;;;;;;;;8325381;28;20454;-77
2021/03/09 21:30:41;;;;;;;76.45;24.20;;;;;;;;;;8324471;28;20469;-77
2021/03/09 21:34:46;;;;;;;69.00;25.27;;;;;;;;;;8326211;28;20477;-77
2021/03/09 21:38:53;;;;;;;92.80;27.58;;;;;;;;;;8326644;28;20056;-77
2021/03/09 21:43:10;;;;;;;92.32;27.08;;;;;;;;;;8332914;28;20451;-77
2021/03/09 21:47:14;;;;;;;88.25;28.17;;;;;;;;;;8336924;28;20335;-77
2021/03/09 21:51:19;;;;;;;90.47;27.88;;;;;;;;;;8333057;28;20474;-76
2021/03/09 21:55:24;;;;;;;87.53;26.05;;;;;;;;;;8332374;28;20463;-76
2021/03/09 21:59:29;;;;;;;85.70;26.88;;;;;;;;;;8330300;28;20048;-77
2021/03/09 22:03:33;;;;;;;92.82;29.25;;;;;;;;;;8313066;28;20446;-76
2021/03/09 22:07:38;;;;;;;85.28;25.70;;;;;;;;;;8329797;28;20457;-76
2021/03/09 22:11:43;;;;;;;79.22;26.27;;;;;;;;;;8327385;28;20359;-76
2021/03/09 22:15:47;;;;;;;64.78;24.80;;;;;;;;;;8333208;28;20386;-76
2021/03/09 22:19:54;;;;;;;67.65;24.95;;;;;;;;;;8345275;28;20048;-76
2021/03/09 22:24:08;;;;;;;69.25;24.23;;;;;;;;;;8333744;28;20358;-78
2021/03/09 22:28:16;;;;;;;86.95;26.40;;;;;;;;;;8336169;28;20044;-77
2021/03/09 22:32:20;;;;;;;75.95;25.38;;;;;;;;;;8333965;28;20451;-77
2021/03/09 22:36:37;;;;;;;80.85;24.55;;;;;;;;;;8332787;28;20066;-77
2021/03/09 22:40:55;;;;;;;80.43;24.65;;;;;;;;;;8330276;28;20478;-76
2021/03/09 22:45:08;;;;;;;75.38;26.40;;;;;;;;;;8329184;28;20372;-76
2021/03/09 22:49:19;;;;;;;82.38;27.63;;;;;;;;;;8330733;28;20048;-77
2021/03/09 22:53:31;;;;;;;81.78;27.02;;;;;;;;;;8330721;28;20480;-77
2021/03/09 22:57:36;;;;;;;76.90;27.25;;;;;;;;;;8330111;28;20405;-76
2021/03/09 23:01:46;;;;;;;78.53;26.33;;;;;;;;;;8326917;28;20080;-76
2021/03/09 23:06:09;;;;;;;79.95;26.23;;;;;;;;;;8327131;28;20454;-77
2021/03/09 23:10:16;;;;;;;74.25;23.40;;;;;;;;;;8329728;28;20447;-77
2021/03/09 23:14:20;;;;;;;67.35;24.95;;;;;;;;;;8325760;28;20336;-78
2021/03/09 23:18:25;;;;;;;70.35;25.52;;;;;;;;;;8343016;28;20066;-77
2021/03/09 23:22:34;;;;;;;65.65;25.75;;;;;;;;;;8326120;28;20454;-77
2021/03/09 23:26:39;;;;;;;62.75;22.55;;;;;;;;;;8326275;28;20352;-77
2021/03/09 23:30:47;;;;;;;62.78;23.30;;;;;;;;;;8326596;28;20467;-76
2021/03/09 23:34:52;;;;;;;61.95;23.75;;;;;;;;;;8324131;28;20060;-77
2021/03/09 23:38:57;;;;;;;62.45;22.85;;;;;;;;;;8340328;28;20370;-76
2021/03/09 23:43:04;;;;;;;62.03;22.45;;;;;;;;;;8327599;28;20109;-76
2021/03/09 23:47:10;;;;;;;64.63;21.38;;;;;;;;;;8325088;28;20059;-77
2021/03/09 23:51:15;;;;;;;66.20;23.23;;;;;;;;;;8326564;28;20472;-77
2021/03/09 23:55:19;;;;;;;63.22;22.63;;;;;;;;;;8324608;28;20393;-77
2021/03/09 23:59:24;;;;;;;54.33;20.17;;;;;;;;;;8325566;28;20048;-77
